THY7AB LTFM-LTDB
Flight info
| Callsign | THY7AB |
|---|---|
| Flight time | 1h 11m |
| Altitude | 37000 |
| Route | RATVU1G/17R RATVU UT35 UNEPI UT38 KETEK UR55 MUT/N0447F360 UW74 MANAZ |
| Aircraft | A20N/M-SDE2E3FGHIRWXY/LB1 |
Departure
| Time | 2026-05-08 18:28 |
|---|---|
| Airport | İstanbul Airport (LTFM) |
Arrival
| Time | 2026-05-08 19:39 |
|---|---|
| Airport | Çukurova International Airport (LTDB) |
| Time | Latitude | Longitude | Altitude | Speed | Heading |
|---|---|---|---|---|---|
| 2026-05-08 17:47 | 41.26476 | 28.73553 | 322 ft | 0 kts | 71° |
| 2026-05-08 18:05 | 41.26474 | 28.73546 | 322 ft | 2 kts | 71° |
| 2026-05-08 18:05 | 41.26471 | 28.73533 | 322 ft | 2 kts | 71° |
| 2026-05-08 18:05 | 41.26467 | 28.73516 | 322 ft | 2 kts | 71° |
| 2026-05-08 18:05 | 41.26462 | 28.73499 | 322 ft | 2 kts | 71° |
| 2026-05-08 18:06 | 41.26459 | 28.73490 | 322 ft | 1 kts | 71° |
| 2026-05-08 18:06 | 41.26453 | 28.73472 | 322 ft | 2 kts | 54° |
| 2026-05-08 18:06 | 41.26444 | 28.73457 | 322 ft | 2 kts | 42° |
| 2026-05-08 18:06 | 41.26431 | 28.73445 | 322 ft | 2 kts | 27° |
| 2026-05-08 18:07 | 41.26416 | 28.73437 | 322 ft | 2 kts | 14° |
| 2026-05-08 18:07 | 41.26403 | 28.73434 | 322 ft | 2 kts | 1° |
| 2026-05-08 18:07 | 41.26390 | 28.73435 | 322 ft | 2 kts | 350° |
| 2026-05-08 18:07 | 41.26381 | 28.73438 | 322 ft | 0 kts | 342° |
| 2026-05-08 18:08 | 41.26376 | 28.73441 | 322 ft | 0 kts | 340° |
| 2026-05-08 18:15 | 41.26377 | 28.73440 | 322 ft | 0 kts | 340° |
| 2026-05-08 18:16 | 41.26398 | 28.73431 | 322 ft | 5 kts | 342° |
| 2026-05-08 18:16 | 41.26428 | 28.73418 | 322 ft | 1 kts | 342° |
| 2026-05-08 18:16 | 41.26467 | 28.73400 | 322 ft | 9 kts | 341° |
| 2026-05-08 18:16 | 41.26532 | 28.73370 | 322 ft | 12 kts | 341° |
| 2026-05-08 18:17 | 41.26584 | 28.73337 | 321 ft | 0 kts | 310° |
| 2026-05-08 18:17 | 41.26593 | 28.73316 | 321 ft | 7 kts | 290° |
| 2026-05-08 18:17 | 41.26594 | 28.73311 | 321 ft | 0 kts | 284° |
| 2026-05-08 18:19 | 41.26595 | 28.73308 | 321 ft | 1 kts | 283° |
| 2026-05-08 18:19 | 41.26598 | 28.73289 | 321 ft | 3 kts | 283° |
| 2026-05-08 18:19 | 41.26607 | 28.73255 | 321 ft | 5 kts | 303° |
| 2026-05-08 18:19 | 41.26666 | 28.73229 | 320 ft | 10 kts | 359° |
| 2026-05-08 18:20 | 41.26745 | 28.73227 | 319 ft | 12 kts | 359° |
| 2026-05-08 18:20 | 41.26796 | 28.73227 | 319 ft | 5 kts | 0° |
| 2026-05-08 18:20 | 41.26841 | 28.73218 | 319 ft | 7 kts | 333° |
| 2026-05-08 18:20 | 41.26866 | 28.73155 | 318 ft | 10 kts | 273° |
| 2026-05-08 18:21 | 41.26866 | 28.73132 | 318 ft | 0 kts | 271° |
| 2026-05-08 18:21 | 41.26866 | 28.73127 | 318 ft | 5 kts | 270° |
| 2026-05-08 18:21 | 41.26868 | 28.73043 | 318 ft | 12 kts | 283° |
| 2026-05-08 18:21 | 41.26960 | 28.72996 | 317 ft | 16 kts | 359° |
| 2026-05-08 18:22 | 41.27073 | 28.72993 | 316 ft | 17 kts | 359° |
| 2026-05-08 18:22 | 41.27193 | 28.72991 | 315 ft | 18 kts | 359° |
| 2026-05-08 18:22 | 41.27321 | 28.72989 | 313 ft | 19 kts | 1° |
| 2026-05-08 18:22 | 41.27454 | 28.72988 | 311 ft | 20 kts | 360° |
| 2026-05-08 18:23 | 41.27589 | 28.72987 | 308 ft | 21 kts | 359° |
| 2026-05-08 18:23 | 41.27935 | 28.72979 | 301 ft | 19 kts | 359° |
| 2026-05-08 18:23 | 41.28071 | 28.72977 | 298 ft | 21 kts | 359° |
| 2026-05-08 18:24 | 41.28218 | 28.72974 | 293 ft | 23 kts | 359° |
| 2026-05-08 18:24 | 41.28358 | 28.72971 | 287 ft | 20 kts | 359° |
| 2026-05-08 18:24 | 41.28507 | 28.72968 | 281 ft | 23 kts | 359° |
| 2026-05-08 18:24 | 41.28670 | 28.72965 | 274 ft | 25 kts | 359° |
| 2026-05-08 18:25 | 41.28846 | 28.72961 | 266 ft | 27 kts | 359° |
| 2026-05-08 18:25 | 41.29184 | 28.72953 | 252 ft | 20 kts | 359° |
| 2026-05-08 18:25 | 41.29328 | 28.72950 | 248 ft | 17 kts | 359° |
| 2026-05-08 18:26 | 41.29434 | 28.72948 | 245 ft | 14 kts | 359° |
| 2026-05-08 18:26 | 41.29494 | 28.72868 | 245 ft | 14 kts | 274° |
| 2026-05-08 18:26 | 41.29494 | 28.72734 | 245 ft | 14 kts | 269° |
| 2026-05-08 18:26 | 41.29493 | 28.72603 | 246 ft | 14 kts | 270° |
| 2026-05-08 18:27 | 41.29492 | 28.72588 | 246 ft | 0 kts | 261° |
| 2026-05-08 18:27 | 41.29491 | 28.72581 | 246 ft | 4 kts | 263° |
| 2026-05-08 18:27 | 41.29472 | 28.72470 | 246 ft | 8 kts | 205° |
| 2026-05-08 18:27 | 41.29391 | 28.72461 | 248 ft | 20 kts | 179° |
| 2026-05-08 18:28 | 41.29111 | 28.72467 | 256 ft | 78 kts | 180° |
| 2026-05-08 18:28 | 41.28476 | 28.72479 | 279 ft | 138 kts | 180° |
| 2026-05-08 18:28 | 41.26327 | 28.72438 | 1539 ft | 160 kts | 182° |
| 2026-05-08 18:29 | 41.25237 | 28.72496 | 2440 ft | 162 kts | 180° |
| 2026-05-08 18:29 | 41.24094 | 28.72571 | 3114 ft | 178 kts | 179° |
| 2026-05-08 18:29 | 41.22828 | 28.72659 | 3780 ft | 194 kts | 178° |
| 2026-05-08 18:29 | 41.21394 | 28.72761 | 4298 ft | 218 kts | 178° |
| 2026-05-08 18:30 | 41.19845 | 28.72870 | 4775 ft | 238 kts | 179° |
| 2026-05-08 18:30 | 41.18213 | 28.72628 | 4970 ft | 241 kts | 200° |
| 2026-05-08 18:30 | 41.16775 | 28.71424 | 5198 ft | 255 kts | 221° |
| 2026-05-08 18:30 | 41.15477 | 28.69809 | 6042 ft | 263 kts | 221° |
| 2026-05-08 18:31 | 41.14157 | 28.68166 | 7154 ft | 262 kts | 221° |
| 2026-05-08 18:31 | 41.12787 | 28.66626 | 8107 ft | 264 kts | 209° |
| 2026-05-08 18:31 | 41.11073 | 28.65884 | 9036 ft | 265 kts | 184° |
| 2026-05-08 18:31 | 41.09271 | 28.66071 | 9969 ft | 267 kts | 174° |
| 2026-05-08 18:32 | 41.07410 | 28.66426 | 10699 ft | 277 kts | 174° |
| 2026-05-08 18:32 | 41.05565 | 28.66758 | 11151 ft | 294 kts | 174° |
| 2026-05-08 18:32 | 41.00964 | 28.67576 | 12217 ft | 328 kts | 174° |
| 2026-05-08 18:33 | 40.98666 | 28.67987 | 13001 ft | 333 kts | 175° |
| 2026-05-08 18:33 | 40.96395 | 28.68387 | 13738 ft | 339 kts | 175° |
| 2026-05-08 18:33 | 40.94024 | 28.68804 | 14502 ft | 344 kts | 175° |
| 2026-05-08 18:33 | 40.91648 | 28.69222 | 15241 ft | 348 kts | 175° |
| 2026-05-08 18:34 | 40.89318 | 28.70053 | 15936 ft | 358 kts | 160° |
| 2026-05-08 18:34 | 40.87079 | 28.71579 | 16680 ft | 364 kts | 154° |
| 2026-05-08 18:34 | 40.84890 | 28.73217 | 17333 ft | 369 kts | 154° |
| 2026-05-08 18:34 | 40.82642 | 28.74884 | 17980 ft | 374 kts | 155° |
| 2026-05-08 18:35 | 40.80356 | 28.76537 | 18603 ft | 379 kts | 155° |
| 2026-05-08 18:35 | 40.78013 | 28.78202 | 19235 ft | 383 kts | 155° |
| 2026-05-08 18:35 | 40.75651 | 28.79860 | 19838 ft | 387 kts | 155° |
| 2026-05-08 18:35 | 40.73275 | 28.81514 | 20439 ft | 392 kts | 155° |
| 2026-05-08 18:36 | 40.70871 | 28.83182 | 21035 ft | 396 kts | 156° |
| 2026-05-08 18:36 | 40.68411 | 28.84884 | 21642 ft | 399 kts | 155° |
| 2026-05-08 18:36 | 40.65934 | 28.86591 | 22215 ft | 404 kts | 155° |
| 2026-05-08 18:36 | 40.63466 | 28.88292 | 22803 ft | 408 kts | 155° |
| 2026-05-08 18:37 | 40.60926 | 28.90039 | 23394 ft | 411 kts | 155° |
| 2026-05-08 18:37 | 40.58379 | 28.91791 | 23891 ft | 415 kts | 155° |
| 2026-05-08 18:37 | 40.55823 | 28.93547 | 24085 ft | 416 kts | 155° |
| 2026-05-08 18:37 | 40.53262 | 28.95305 | 24103 ft | 418 kts | 155° |
| 2026-05-08 18:38 | 40.50659 | 28.97090 | 24442 ft | 424 kts | 155° |
| 2026-05-08 18:38 | 40.48079 | 28.98857 | 25113 ft | 424 kts | 155° |
| 2026-05-08 18:38 | 40.45461 | 29.00650 | 25731 ft | 425 kts | 155° |
| 2026-05-08 18:38 | 40.42884 | 29.02411 | 26234 ft | 428 kts | 155° |
| 2026-05-08 18:39 | 40.40234 | 29.04220 | 26720 ft | 432 kts | 155° |
| 2026-05-08 18:39 | 40.37570 | 29.06037 | 27200 ft | 435 kts | 155° |
| 2026-05-08 18:39 | 40.34929 | 29.07839 | 27668 ft | 438 kts | 155° |
| 2026-05-08 18:39 | 40.32187 | 29.09706 | 28119 ft | 441 kts | 155° |
| 2026-05-08 18:40 | 40.29489 | 29.11542 | 28518 ft | 444 kts | 155° |
| 2026-05-08 18:40 | 40.26723 | 29.13424 | 28904 ft | 447 kts | 155° |
| 2026-05-08 18:40 | 40.23974 | 29.15292 | 29288 ft | 450 kts | 155° |
| 2026-05-08 18:40 | 40.21203 | 29.17172 | 29667 ft | 452 kts | 155° |
| 2026-05-08 18:41 | 40.18383 | 29.19086 | 30008 ft | 455 kts | 155° |
| 2026-05-08 18:41 | 40.15591 | 29.20978 | 30320 ft | 457 kts | 156° |
| 2026-05-08 18:41 | 40.12764 | 29.22896 | 30642 ft | 459 kts | 156° |
| 2026-05-08 18:41 | 40.09955 | 29.24801 | 31048 ft | 458 kts | 156° |
| 2026-05-08 18:42 | 40.07133 | 29.26712 | 31485 ft | 457 kts | 156° |
| 2026-05-08 18:42 | 40.04319 | 29.28615 | 31867 ft | 456 kts | 156° |
| 2026-05-08 18:42 | 40.01494 | 29.30521 | 32227 ft | 456 kts | 156° |
| 2026-05-08 18:42 | 39.98669 | 29.32427 | 32589 ft | 456 kts | 157° |
| 2026-05-08 18:43 | 39.95867 | 29.34313 | 32928 ft | 456 kts | 157° |
| 2026-05-08 18:43 | 39.93053 | 29.36204 | 33227 ft | 457 kts | 158° |
| 2026-05-08 18:43 | 39.90199 | 29.38031 | 33545 ft | 456 kts | 160° |
| 2026-05-08 18:43 | 39.87280 | 29.39681 | 33857 ft | 455 kts | 162° |
| 2026-05-08 18:44 | 39.84380 | 29.41270 | 34151 ft | 455 kts | 162° |
| 2026-05-08 18:44 | 39.81461 | 29.42868 | 34449 ft | 454 kts | 162° |
| 2026-05-08 18:44 | 39.78560 | 29.44459 | 34733 ft | 454 kts | 162° |
| 2026-05-08 18:44 | 39.77589 | 29.44993 | 34822 ft | 454 kts | 162° |
| 2026-05-08 18:46 | 39.61734 | 29.53634 | 36091 ft | 457 kts | 164° |
| 2026-05-08 18:46 | 39.58730 | 29.55128 | 36341 ft | 457 kts | 165° |
| 2026-05-08 18:46 | 39.55753 | 29.56590 | 36565 ft | 458 kts | 165° |
| 2026-05-08 18:46 | 39.52764 | 29.58061 | 36785 ft | 459 kts | 164° |
| 2026-05-08 18:47 | 39.49781 | 29.59535 | 36995 ft | 460 kts | 164° |
| 2026-05-08 18:47 | 39.46788 | 29.61017 | 37169 ft | 462 kts | 164° |
| 2026-05-08 18:47 | 39.40813 | 29.63987 | 37178 ft | 464 kts | 164° |
| 2026-05-08 18:48 | 39.34771 | 29.67005 | 37180 ft | 465 kts | 165° |
| 2026-05-08 18:48 | 39.28733 | 29.70028 | 37183 ft | 463 kts | 165° |
| 2026-05-08 18:49 | 39.22710 | 29.73022 | 37192 ft | 463 kts | 165° |
| 2026-05-08 18:49 | 39.16724 | 29.75983 | 37194 ft | 463 kts | 165° |
| 2026-05-08 18:50 | 39.10712 | 29.78947 | 37198 ft | 464 kts | 165° |
| 2026-05-08 18:50 | 39.04685 | 29.81917 | 37207 ft | 464 kts | 165° |
| 2026-05-08 18:51 | 39.01671 | 29.83400 | 37322 ft | 463 kts | 165° |
| 2026-05-08 18:51 | 38.98649 | 29.84888 | 37255 ft | 464 kts | 165° |
| 2026-05-08 18:51 | 38.95618 | 29.86381 | 37007 ft | 465 kts | 165° |
| 2026-05-08 18:51 | 38.92637 | 29.87842 | 37135 ft | 465 kts | 165° |
| 2026-05-08 18:52 | 38.89604 | 29.89329 | 37287 ft | 464 kts | 165° |
| 2026-05-08 18:52 | 38.86604 | 29.90774 | 37238 ft | 463 kts | 166° |
| 2026-05-08 18:52 | 38.80541 | 29.93636 | 37211 ft | 464 kts | 166° |
| 2026-05-08 18:53 | 38.74499 | 29.96491 | 37213 ft | 466 kts | 166° |
| 2026-05-08 18:53 | 38.68429 | 29.99369 | 37213 ft | 465 kts | 166° |
| 2026-05-08 18:54 | 38.62333 | 30.02252 | 37208 ft | 467 kts | 165° |
| 2026-05-08 18:54 | 38.56214 | 30.05145 | 37201 ft | 467 kts | 165° |
| 2026-05-08 18:55 | 38.47104 | 30.09449 | 37190 ft | 468 kts | 165° |
| 2026-05-08 18:56 | 38.40971 | 30.12341 | 37192 ft | 468 kts | 165° |
| 2026-05-08 18:56 | 38.34837 | 30.15225 | 37197 ft | 469 kts | 165° |
| 2026-05-08 18:57 | 38.28608 | 30.17216 | 37193 ft | 463 kts | 171° |
| 2026-05-08 18:57 | 38.25612 | 30.18883 | 37191 ft | 478 kts | 150° |
| 2026-05-08 18:57 | 38.23174 | 30.21764 | 37204 ft | 484 kts | 130° |
| 2026-05-08 18:58 | 38.19404 | 30.28754 | 37217 ft | 476 kts | 127° |
| 2026-05-08 18:58 | 38.15639 | 30.35656 | 37222 ft | 475 kts | 128° |
| 2026-05-08 18:59 | 38.11766 | 30.42414 | 37228 ft | 475 kts | 129° |
| 2026-05-08 18:59 | 38.07852 | 30.49151 | 37238 ft | 475 kts | 129° |
| 2026-05-08 19:00 | 38.03928 | 30.55887 | 37241 ft | 475 kts | 129° |
| 2026-05-08 19:00 | 38.00013 | 30.62592 | 37247 ft | 475 kts | 129° |
| 2026-05-08 19:01 | 37.96094 | 30.69301 | 37244 ft | 475 kts | 130° |
| 2026-05-08 19:01 | 37.92149 | 30.76046 | 37256 ft | 476 kts | 130° |
| 2026-05-08 19:02 | 37.88205 | 30.82764 | 37258 ft | 475 kts | 130° |
| 2026-05-08 19:02 | 37.84224 | 30.89491 | 37259 ft | 475 kts | 130° |
| 2026-05-08 19:03 | 37.80263 | 30.96192 | 37254 ft | 476 kts | 130° |
| 2026-05-08 19:03 | 37.76327 | 31.02862 | 37246 ft | 476 kts | 129° |
| 2026-05-08 19:04 | 37.72369 | 31.09559 | 37255 ft | 477 kts | 130° |
| 2026-05-08 19:04 | 37.68398 | 31.16262 | 37256 ft | 477 kts | 129° |
| 2026-05-08 19:05 | 37.64400 | 31.22996 | 37261 ft | 479 kts | 129° |
| 2026-05-08 19:05 | 37.60400 | 31.29721 | 37262 ft | 480 kts | 129° |
| 2026-05-08 19:06 | 37.56419 | 31.36403 | 37258 ft | 480 kts | 129° |
| 2026-05-08 19:06 | 37.52423 | 31.43104 | 37247 ft | 480 kts | 129° |
| 2026-05-08 19:07 | 37.48400 | 31.49826 | 37253 ft | 480 kts | 129° |
| 2026-05-08 19:07 | 37.44387 | 31.56529 | 37264 ft | 481 kts | 129° |
| 2026-05-08 19:08 | 37.40345 | 31.63271 | 37267 ft | 482 kts | 129° |
| 2026-05-08 19:08 | 37.36324 | 31.69971 | 37267 ft | 481 kts | 130° |
| 2026-05-08 19:09 | 37.32272 | 31.76672 | 37278 ft | 482 kts | 130° |
| 2026-05-08 19:09 | 37.28212 | 31.83368 | 37286 ft | 482 kts | 130° |
| 2026-05-08 19:10 | 37.24168 | 31.90026 | 37296 ft | 482 kts | 130° |
| 2026-05-08 19:10 | 37.20114 | 31.96693 | 37302 ft | 482 kts | 130° |
| 2026-05-08 19:11 | 37.16040 | 32.03381 | 37297 ft | 483 kts | 130° |
| 2026-05-08 19:11 | 37.11966 | 32.10054 | 37293 ft | 484 kts | 129° |
| 2026-05-08 19:12 | 37.07887 | 32.16730 | 37297 ft | 484 kts | 130° |
| 2026-05-08 19:12 | 37.03803 | 32.23395 | 37295 ft | 484 kts | 129° |
| 2026-05-08 19:13 | 36.99717 | 32.30057 | 37289 ft | 484 kts | 129° |
| 2026-05-08 19:13 | 36.95614 | 32.36731 | 37287 ft | 484 kts | 130° |
| 2026-05-08 19:14 | 36.91764 | 32.43615 | 37275 ft | 487 kts | 119° |
| 2026-05-08 19:14 | 36.89211 | 32.51408 | 37270 ft | 488 kts | 103° |
| 2026-05-08 19:15 | 36.88216 | 32.59733 | 37256 ft | 484 kts | 89° |
| 2026-05-08 19:15 | 36.88108 | 32.63925 | 36956 ft | 484 kts | 88° |
| 2026-05-08 19:15 | 36.88039 | 32.68126 | 36658 ft | 481 kts | 89° |
| 2026-05-08 19:15 | 36.87960 | 32.72290 | 36323 ft | 479 kts | 89° |
| 2026-05-08 19:16 | 36.87866 | 32.76387 | 35933 ft | 477 kts | 89° |
| 2026-05-08 19:16 | 36.87758 | 32.80516 | 35416 ft | 476 kts | 89° |
| 2026-05-08 19:16 | 36.87642 | 32.84654 | 34848 ft | 477 kts | 89° |
| 2026-05-08 19:16 | 36.87520 | 32.88782 | 34257 ft | 477 kts | 89° |
| 2026-05-08 19:17 | 36.87396 | 32.92911 | 33654 ft | 477 kts | 89° |
| 2026-05-08 19:17 | 36.87271 | 32.97002 | 33059 ft | 477 kts | 88° |
| 2026-05-08 19:17 | 36.87145 | 33.01168 | 32424 ft | 477 kts | 89° |
| 2026-05-08 19:17 | 36.87019 | 33.05279 | 31786 ft | 477 kts | 89° |
| 2026-05-08 19:18 | 36.86892 | 33.09370 | 31151 ft | 477 kts | 89° |
| 2026-05-08 19:18 | 36.86761 | 33.13518 | 30498 ft | 476 kts | 89° |
| 2026-05-08 19:18 | 36.86635 | 33.17594 | 29826 ft | 477 kts | 89° |
| 2026-05-08 19:18 | 36.86500 | 33.21726 | 29194 ft | 477 kts | 89° |
| 2026-05-08 19:19 | 36.86363 | 33.25904 | 28567 ft | 478 kts | 89° |
| 2026-05-08 19:19 | 36.86322 | 33.30014 | 27982 ft | 473 kts | 85° |
| 2026-05-08 19:19 | 36.86456 | 33.34057 | 27599 ft | 466 kts | 83° |
| 2026-05-08 19:19 | 36.86651 | 33.38119 | 27185 ft | 462 kts | 82° |
| 2026-05-08 19:20 | 36.86856 | 33.42086 | 26732 ft | 459 kts | 82° |
| 2026-05-08 19:20 | 36.86992 | 33.44731 | 26441 ft | 455 kts | 82° |
| 2026-05-08 19:20 | 36.87256 | 33.49931 | 25857 ft | 450 kts | 82° |
| 2026-05-08 19:20 | 36.87449 | 33.53788 | 25425 ft | 445 kts | 83° |
| 2026-05-08 19:21 | 36.87640 | 33.57623 | 25278 ft | 443 kts | 82° |
| 2026-05-08 19:21 | 36.87828 | 33.61493 | 25276 ft | 444 kts | 83° |
| 2026-05-08 19:21 | 36.88014 | 33.65317 | 25270 ft | 444 kts | 83° |
| 2026-05-08 19:21 | 36.88199 | 33.69184 | 25279 ft | 444 kts | 83° |
| 2026-05-08 19:22 | 36.88382 | 33.73026 | 25277 ft | 445 kts | 83° |
| 2026-05-08 19:22 | 36.88560 | 33.76880 | 25285 ft | 445 kts | 83° |
| 2026-05-08 19:22 | 36.88737 | 33.80683 | 25285 ft | 445 kts | 83° |
| 2026-05-08 19:22 | 36.88915 | 33.84541 | 25282 ft | 445 kts | 83° |
| 2026-05-08 19:23 | 36.89095 | 33.88420 | 25286 ft | 444 kts | 83° |
| 2026-05-08 19:23 | 36.89269 | 33.92220 | 25294 ft | 443 kts | 83° |
| 2026-05-08 19:23 | 36.89445 | 33.96064 | 25260 ft | 441 kts | 83° |
| 2026-05-08 19:23 | 36.89617 | 33.99853 | 24737 ft | 440 kts | 83° |
| 2026-05-08 19:24 | 36.89791 | 34.03655 | 23784 ft | 445 kts | 84° |
| 2026-05-08 19:24 | 36.89965 | 34.07487 | 23056 ft | 444 kts | 84° |
| 2026-05-08 19:24 | 36.90137 | 34.11345 | 22483 ft | 438 kts | 84° |
| 2026-05-08 19:24 | 36.90302 | 34.15118 | 21895 ft | 434 kts | 84° |
| 2026-05-08 19:25 | 36.90466 | 34.18859 | 21288 ft | 430 kts | 84° |
| 2026-05-08 19:25 | 36.90627 | 34.22563 | 20666 ft | 427 kts | 85° |
| 2026-05-08 19:25 | 36.90787 | 34.26256 | 20058 ft | 423 kts | 85° |
| 2026-05-08 19:25 | 36.90944 | 34.29888 | 19481 ft | 419 kts | 85° |
| 2026-05-08 19:26 | 36.91098 | 34.33495 | 18912 ft | 414 kts | 85° |
| 2026-05-08 19:26 | 36.91249 | 34.37061 | 18322 ft | 411 kts | 85° |
| 2026-05-08 19:26 | 36.91487 | 34.40585 | 17743 ft | 406 kts | 81° |
| 2026-05-08 19:26 | 36.91983 | 34.44014 | 17188 ft | 401 kts | 75° |
| 2026-05-08 19:27 | 36.92650 | 34.47378 | 16618 ft | 397 kts | 73° |
| 2026-05-08 19:27 | 36.93348 | 34.50704 | 16046 ft | 394 kts | 73° |
| 2026-05-08 19:27 | 36.94044 | 34.53991 | 15524 ft | 389 kts | 73° |
| 2026-05-08 19:27 | 36.94720 | 34.57217 | 14992 ft | 385 kts | 73° |
| 2026-05-08 19:28 | 36.95390 | 34.60438 | 14451 ft | 381 kts | 73° |
| 2026-05-08 19:28 | 36.96049 | 34.63609 | 13974 ft | 376 kts | 73° |
| 2026-05-08 19:28 | 36.96703 | 34.66783 | 13585 ft | 369 kts | 74° |
| 2026-05-08 19:28 | 36.97327 | 34.69825 | 13211 ft | 362 kts | 74° |
| 2026-05-08 19:29 | 36.97948 | 34.72855 | 12809 ft | 355 kts | 74° |
| 2026-05-08 19:29 | 36.98557 | 34.75820 | 12438 ft | 350 kts | 74° |
| 2026-05-08 19:29 | 36.99150 | 34.78727 | 12064 ft | 344 kts | 74° |
| 2026-05-08 19:29 | 36.99737 | 34.81596 | 11675 ft | 339 kts | 74° |
| 2026-05-08 19:30 | 37.00317 | 34.84436 | 11308 ft | 333 kts | 74° |
| 2026-05-08 19:30 | 37.00892 | 34.87250 | 10929 ft | 328 kts | 74° |
| 2026-05-08 19:30 | 37.01446 | 34.89972 | 10563 ft | 323 kts | 74° |
| 2026-05-08 19:30 | 37.01996 | 34.92677 | 10184 ft | 318 kts | 74° |
| 2026-05-08 19:31 | 37.02529 | 34.95309 | 9816 ft | 313 kts | 74° |
| 2026-05-08 19:31 | 37.03063 | 34.97941 | 9441 ft | 308 kts | 74° |
| 2026-05-08 19:31 | 37.03669 | 35.00476 | 9067 ft | 301 kts | 63° |
| 2026-05-08 19:31 | 37.04969 | 35.02424 | 8741 ft | 291 kts | 34° |
| 2026-05-08 19:32 | 37.06695 | 35.03674 | 8431 ft | 285 kts | 29° |
| 2026-05-08 19:32 | 37.08415 | 35.04907 | 8098 ft | 281 kts | 30° |
| 2026-05-08 19:32 | 37.10070 | 35.06136 | 7766 ft | 276 kts | 31° |
| 2026-05-08 19:32 | 37.11711 | 35.07369 | 7442 ft | 272 kts | 31° |
| 2026-05-08 19:33 | 37.13195 | 35.08784 | 7133 ft | 266 kts | 52° |
| 2026-05-08 19:33 | 37.13867 | 35.10883 | 6893 ft | 261 kts | 86° |
| 2026-05-08 19:33 | 37.13454 | 35.13045 | 6672 ft | 257 kts | 118° |
| 2026-05-08 19:33 | 37.12454 | 35.14861 | 6460 ft | 252 kts | 124° |
| 2026-05-08 19:34 | 37.11412 | 35.16604 | 6203 ft | 248 kts | 123° |
| 2026-05-08 19:34 | 37.10417 | 35.18386 | 5557 ft | 262 kts | 122° |
| 2026-05-08 19:34 | 37.09335 | 35.20343 | 4324 ft | 290 kts | 130° |
| 2026-05-08 19:34 | 37.07687 | 35.21739 | 3364 ft | 294 kts | 163° |
| 2026-05-08 19:35 | 37.05708 | 35.21774 | 2702 ft | 283 kts | 198° |
| 2026-05-08 19:35 | 37.04144 | 35.20472 | 2342 ft | 264 kts | 231° |
| 2026-05-08 19:35 | 37.03057 | 35.18726 | 2274 ft | 240 kts | 229° |
| 2026-05-08 19:35 | 37.01960 | 35.17247 | 2306 ft | 225 kts | 224° |
| 2026-05-08 19:36 | 37.00794 | 35.16042 | 2234 ft | 204 kts | 216° |
| 2026-05-08 19:36 | 36.99684 | 35.15106 | 2102 ft | 179 kts | 213° |
| 2026-05-08 19:36 | 36.98698 | 35.14351 | 1932 ft | 159 kts | 211° |
| 2026-05-08 19:36 | 36.97784 | 35.13668 | 1685 ft | 148 kts | 211° |
| 2026-05-08 19:37 | 36.96903 | 35.13006 | 1478 ft | 146 kts | 211° |
| 2026-05-08 19:37 | 36.96041 | 35.12355 | 1273 ft | 141 kts | 211° |
| 2026-05-08 19:37 | 36.95225 | 35.11736 | 1080 ft | 135 kts | 211° |
| 2026-05-08 19:37 | 36.94424 | 35.11127 | 916 ft | 135 kts | 212° |
| 2026-05-08 19:38 | 36.93617 | 35.10514 | 750 ft | 135 kts | 212° |
| 2026-05-08 19:38 | 36.92809 | 35.09919 | 575 ft | 135 kts | 210° |
| 2026-05-08 19:38 | 36.92013 | 35.09300 | 394 ft | 134 kts | 214° |
| 2026-05-08 19:38 | 36.91217 | 35.08703 | 211 ft | 133 kts | 212° |
| 2026-05-08 19:39 | 36.90432 | 35.08091 | 70 ft | 129 kts | 212° |
| 2026-05-08 19:39 | 36.89720 | 35.07550 | 31 ft | 100 kts | 205° |
| 2026-05-08 19:39 | 36.89266 | 35.07206 | 30 ft | 56 kts | 211° |
| 2026-05-08 19:39 | 36.88992 | 35.06998 | 24 ft | 39 kts | 211° |
| 2026-05-08 19:40 | 36.88761 | 35.06820 | 28 ft | 36 kts | 211° |
| 2026-05-08 19:40 | 36.88602 | 35.06661 | 30 ft | 26 kts | 233° |
| 2026-05-08 19:40 | 36.88539 | 35.06522 | 31 ft | 9 kts | 243° |
| 2026-05-08 19:40 | 36.88525 | 35.06438 | 30 ft | 11 kts | 281° |
| 2026-05-08 19:41 | 36.88591 | 35.06416 | 30 ft | 12 kts | 23° |
| 2026-05-08 19:41 | 36.88689 | 35.06488 | 28 ft | 20 kts | 34° |
| 2026-05-08 19:41 | 36.88839 | 35.06602 | 26 ft | 30 kts | 31° |
| 2026-05-08 19:41 | 36.89048 | 35.06760 | 23 ft | 39 kts | 31° |
| 2026-05-08 19:42 | 36.89287 | 35.06943 | 26 ft | 37 kts | 31° |
| 2026-05-08 19:42 | 36.89392 | 35.06942 | 27 ft | 16 kts | 275° |
| 2026-05-08 19:42 | 36.89452 | 35.06849 | 28 ft | 13 kts | 302° |
| 2026-05-08 19:42 | 36.89502 | 35.06747 | 29 ft | 13 kts | 302° |
| 2026-05-08 19:43 | 36.89559 | 35.06662 | 30 ft | 12 kts | 8° |
| 2026-05-08 19:43 | 36.89639 | 35.06711 | 31 ft | 13 kts | 32° |
| 2026-05-08 19:43 | 36.89719 | 35.06773 | 33 ft | 12 kts | 32° |
| 2026-05-08 19:43 | 36.89790 | 35.06828 | 37 ft | 11 kts | 32° |
| 2026-05-08 19:44 | 36.89878 | 35.06895 | 35 ft | 13 kts | 32° |
| 2026-05-08 19:44 | 36.89956 | 35.06956 | 33 ft | 13 kts | 32° |
| 2026-05-08 19:44 | 36.90015 | 35.06979 | 32 ft | 7 kts | 323° |
| 2026-05-08 19:44 | 36.90041 | 35.06930 | 33 ft | 0 kts | 301° |
| 2026-05-08 19:45 | 36.90042 | 35.06929 | 33 ft | 0 kts | 301° |